sensor_id;sensor_type;location;lat;lon;timestamp;P1;durP1;ratioP1;P2;durP2;ratioP2
31974;SDS011;18500;43.618;1.474;2023-05-07T00:00:26;115.82;;;107.53;;
31974;SDS011;18500;43.618;1.474;2023-05-07T00:02:53;183.55;;;171.75;;
31974;SDS011;18500;43.618;1.474;2023-05-07T00:05:18;105.03;;;96.65;;
31974;SDS011;18500;43.618;1.474;2023-05-07T00:07:44;136.98;;;126.80;;
31974;SDS011;18500;43.618;1.474;2023-05-07T00:10:10;99.85;;;91.57;;
31974;SDS011;18500;43.618;1.474;2023-05-07T00:12:37;97.32;;;89.22;;
31974;SDS011;18500;43.618;1.474;2023-05-07T00:15:03;188.73;;;176.82;;
31974;SDS011;18500;43.618;1.474;2023-05-07T00:17:29;174.73;;;162.52;;
31974;SDS011;18500;43.618;1.474;2023-05-07T00:19:56;196.00;;;183.23;;
31974;SDS011;18500;43.618;1.474;2023-05-07T00:22:21;119.47;;;110.82;;
31974;SDS011;18500;43.618;1.474;2023-05-07T00:24:47;102.57;;;94.70;;
31974;SDS011;18500;43.618;1.474;2023-05-07T00:27:13;117.78;;;108.40;;
31974;SDS011;18500;43.618;1.474;2023-05-07T00:29:38;106.35;;;98.68;;
31974;SDS011;18500;43.618;1.474;2023-05-07T00:32:04;119.93;;;111.03;;
31974;SDS011;18500;43.618;1.474;2023-05-07T00:34:30;117.38;;;108.30;;
31974;SDS011;18500;43.618;1.474;2023-05-07T00:36:55;101.28;;;93.20;;
31974;SDS011;18500;43.618;1.474;2023-05-07T00:39:21;82.15;;;75.38;;
31974;SDS011;18500;43.618;1.474;2023-05-07T00:41:47;119.75;;;110.90;;
31974;SDS011;18500;43.618;1.474;2023-05-07T00:44:13;130.27;;;119.90;;
31974;SDS011;18500;43.618;1.474;2023-05-07T00:46:39;174.45;;;162.55;;
31974;SDS011;18500;43.618;1.474;2023-05-07T00:49:05;135.85;;;126.65;;
31974;SDS011;18500;43.618;1.474;2023-05-07T00:51:31;124.20;;;115.25;;
31974;SDS011;18500;43.618;1.474;2023-05-07T00:53:59;201.70;;;187.68;;
31974;SDS011;18500;43.618;1.474;2023-05-07T00:56:27;146.23;;;134.38;;
31974;SDS011;18500;43.618;1.474;2023-05-07T00:58:53;224.30;;;210.23;;
31974;SDS011;18500;43.618;1.474;2023-05-07T01:01:19;110.38;;;101.90;;
31974;SDS011;18500;43.618;1.474;2023-05-07T01:03:45;168.40;;;156.50;;
31974;SDS011;18500;43.618;1.474;2023-05-07T01:06:11;149.82;;;139.05;;
31974;SDS011;18500;43.618;1.474;2023-05-07T01:08:38;191.52;;;178.10;;
31974;SDS011;18500;43.618;1.474;2023-05-07T01:11:06;151.50;;;141.02;;
31974;SDS011;18500;43.618;1.474;2023-05-07T01:13:32;120.95;;;112.20;;
31974;SDS011;18500;43.618;1.474;2023-05-07T01:15:59;133.95;;;124.00;;
31974;SDS011;18500;43.618;1.474;2023-05-07T01:18:25;169.23;;;158.60;;
31974;SDS011;18500;43.618;1.474;2023-05-07T01:20:51;156.98;;;146.52;;
31974;SDS011;18500;43.618;1.474;2023-05-07T01:23:17;146.27;;;136.45;;
31974;SDS011;18500;43.618;1.474;2023-05-07T01:25:50;88.15;;;80.82;;
31974;SDS011;18500;43.618;1.474;2023-05-07T01:28:19;82.10;;;75.03;;
31974;SDS011;18500;43.618;1.474;2023-05-07T01:30:46;106.22;;;98.28;;
31974;SDS011;18500;43.618;1.474;2023-05-07T01:33:18;120.07;;;111.00;;
31974;SDS011;18500;43.618;1.474;2023-05-07T01:35:47;116.68;;;108.10;;
31974;SDS011;18500;43.618;1.474;2023-05-07T01:38:15;104.50;;;96.18;;
31974;SDS011;18500;43.618;1.474;2023-05-07T01:40:42;108.40;;;100.80;;
31974;SDS011;18500;43.618;1.474;2023-05-07T01:43:08;130.07;;;120.07;;
31974;SDS011;18500;43.618;1.474;2023-05-07T01:45:35;165.75;;;154.43;;
31974;SDS011;18500;43.618;1.474;2023-05-07T01:48:01;147.10;;;136.52;;
31974;SDS011;18500;43.618;1.474;2023-05-07T01:50:28;143.05;;;133.18;;
31974;SDS011;18500;43.618;1.474;2023-05-07T01:52:55;149.23;;;138.98;;
31974;SDS011;18500;43.618;1.474;2023-05-07T01:55:21;114.70;;;105.75;;
31974;SDS011;18500;43.618;1.474;2023-05-07T01:57:47;106.63;;;97.65;;
31974;SDS011;18500;43.618;1.474;2023-05-07T02:00:12;93.78;;;85.72;;
31974;SDS011;18500;43.618;1.474;2023-05-07T02:02:38;102.05;;;94.28;;
31974;SDS011;18500;43.618;1.474;2023-05-07T02:05:04;124.97;;;115.75;;
31974;SDS011;18500;43.618;1.474;2023-05-07T02:07:30;110.72;;;101.90;;
31974;SDS011;18500;43.618;1.474;2023-05-07T02:09:56;141.20;;;131.52;;
31974;SDS011;18500;43.618;1.474;2023-05-07T02:12:22;117.57;;;109.00;;
31974;SDS011;18500;43.618;1.474;2023-05-07T02:14:48;144.30;;;134.30;;
31974;SDS011;18500;43.618;1.474;2023-05-07T02:17:13;237.80;;;223.10;;
31974;SDS011;18500;43.618;1.474;2023-05-07T02:19:39;133.88;;;123.72;;
31974;SDS011;18500;43.618;1.474;2023-05-07T02:22:05;120.03;;;111.30;;
31974;SDS011;18500;43.618;1.474;2023-05-07T02:24:30;117.63;;;109.18;;
31974;SDS011;18500;43.618;1.474;2023-05-07T02:26:56;100.10;;;92.38;;
31974;SDS011;18500;43.618;1.474;2023-05-07T02:29:22;81.30;;;74.88;;
31974;SDS011;18500;43.618;1.474;2023-05-07T02:31:47;156.57;;;146.30;;
31974;SDS011;18500;43.618;1.474;2023-05-07T02:34:16;88.15;;;80.93;;
31974;SDS011;18500;43.618;1.474;2023-05-07T02:36:42;108.20;;;100.80;;
31974;SDS011;18500;43.618;1.474;2023-05-07T02:39:07;76.85;;;71.05;;
31974;SDS011;18500;43.618;1.474;2023-05-07T02:41:33;93.00;;;85.88;;
31974;SDS011;18500;43.618;1.474;2023-05-07T02:43:59;111.30;;;103.13;;
31974;SDS011;18500;43.618;1.474;2023-05-07T02:46:25;165.98;;;155.40;;
31974;SDS011;18500;43.618;1.474;2023-05-07T02:48:50;90.88;;;84.53;;
31974;SDS011;18500;43.618;1.474;2023-05-07T02:51:19;181.95;;;170.10;;
31974;SDS011;18500;43.618;1.474;2023-05-07T02:53:45;95.32;;;88.00;;
31974;SDS011;18500;43.618;1.474;2023-05-07T02:56:11;105.80;;;97.55;;
31974;SDS011;18500;43.618;1.474;2023-05-07T02:58:37;109.63;;;101.18;;
31974;SDS011;18500;43.618;1.474;2023-05-07T03:01:04;161.48;;;150.85;;
31974;SDS011;18500;43.618;1.474;2023-05-07T03:03:33;175.43;;;163.73;;
31974;SDS011;18500;43.618;1.474;2023-05-07T03:05:59;93.22;;;86.15;;
31974;SDS011;18500;43.618;1.474;2023-05-07T03:08:24;158.18;;;148.38;;
31974;SDS011;18500;43.618;1.474;2023-05-07T03:10:50;99.28;;;91.20;;
31974;SDS011;18500;43.618;1.474;2023-05-07T03:13:16;102.65;;;95.20;;
31974;SDS011;18500;43.618;1.474;2023-05-07T03:15:42;133.57;;;124.70;;
31974;SDS011;18500;43.618;1.474;2023-05-07T03:18:07;93.75;;;86.75;;
31974;SDS011;18500;43.618;1.474;2023-05-07T03:20:33;102.57;;;94.05;;
31974;SDS011;18500;43.618;1.474;2023-05-07T03:22:59;75.75;;;69.57;;
31974;SDS011;18500;43.618;1.474;2023-05-07T03:25:25;136.98;;;127.05;;
31974;SDS011;18500;43.618;1.474;2023-05-07T03:27:50;130.88;;;121.85;;
31974;SDS011;18500;43.618;1.474;2023-05-07T03:30:16;93.18;;;86.20;;
31974;SDS011;18500;43.618;1.474;2023-05-07T03:32:42;98.43;;;91.10;;
31974;SDS011;18500;43.618;1.474;2023-05-07T03:35:08;200.85;;;187.55;;
31974;SDS011;18500;43.618;1.474;2023-05-07T03:37:33;118.72;;;110.15;;
31974;SDS011;18500;43.618;1.474;2023-05-07T03:39:59;216.55;;;201.65;;
31974;SDS011;18500;43.618;1.474;2023-05-07T03:42:24;139.10;;;129.05;;
31974;SDS011;18500;43.618;1.474;2023-05-07T03:44:50;132.90;;;123.82;;
31974;SDS011;18500;43.618;1.474;2023-05-07T03:47:16;145.73;;;135.90;;
31974;SDS011;18500;43.618;1.474;2023-05-07T03:49:41;92.53;;;85.47;;
31974;SDS011;18500;43.618;1.474;2023-05-07T03:52:07;91.28;;;84.50;;
31974;SDS011;18500;43.618;1.474;2023-05-07T03:54:33;90.57;;;83.32;;
31974;SDS011;18500;43.618;1.474;2023-05-07T03:56:58;89.60;;;82.65;;
31974;SDS011;18500;43.618;1.474;2023-05-07T03:59:24;88.72;;;81.25;;
31974;SDS011;18500;43.618;1.474;2023-05-07T04:01:50;116.68;;;107.80;;
31974;SDS011;18500;43.618;1.474;2023-05-07T04:04:15;242.68;;;227.35;;
31974;SDS011;18500;43.618;1.474;2023-05-07T04:06:41;150.50;;;139.52;;
31974;SDS011;18500;43.618;1.474;2023-05-07T04:09:07;132.23;;;123.35;;
31974;SDS011;18500;43.618;1.474;2023-05-07T04:11:33;189.00;;;176.70;;
31974;SDS011;18500;43.618;1.474;2023-05-07T04:13:59;125.03;;;116.15;;
31974;SDS011;18500;43.618;1.474;2023-05-07T04:16:25;125.95;;;117.13;;
31974;SDS011;18500;43.618;1.474;2023-05-07T04:18:50;191.20;;;179.30;;
31974;SDS011;18500;43.618;1.474;2023-05-07T04:21:16;195.52;;;182.75;;
31974;SDS011;18500;43.618;1.474;2023-05-07T04:23:43;167.35;;;156.40;;
31974;SDS011;18500;43.618;1.474;2023-05-07T04:26:09;123.53;;;114.93;;
31974;SDS011;18500;43.618;1.474;2023-05-07T04:28:35;139.18;;;129.85;;
31974;SDS011;18500;43.618;1.474;2023-05-07T04:31:01;122.80;;;114.07;;
31974;SDS011;18500;43.618;1.474;2023-05-07T04:33:27;116.03;;;108.13;;
31974;SDS011;18500;43.618;1.474;2023-05-07T04:35:52;138.00;;;128.57;;
31974;SDS011;18500;43.618;1.474;2023-05-07T04:38:18;95.85;;;88.40;;
31974;SDS011;18500;43.618;1.474;2023-05-07T04:40:44;110.80;;;102.28;;
31974;SDS011;18500;43.618;1.474;2023-05-07T04:43:10;88.93;;;82.70;;
31974;SDS011;18500;43.618;1.474;2023-05-07T04:45:36;99.50;;;92.00;;
31974;SDS011;18500;43.618;1.474;2023-05-07T04:48:02;95.43;;;89.07;;
31974;SDS011;18500;43.618;1.474;2023-05-07T04:50:27;110.30;;;102.28;;
31974;SDS011;18500;43.618;1.474;2023-05-07T04:52:53;110.40;;;102.22;;
31974;SDS011;18500;43.618;1.474;2023-05-07T04:55:19;172.25;;;160.60;;
31974;SDS011;18500;43.618;1.474;2023-05-07T04:57:44;113.45;;;105.57;;
31974;SDS011;18500;43.618;1.474;2023-05-07T05:00:10;93.95;;;86.60;;
31974;SDS011;18500;43.618;1.474;2023-05-07T05:02:39;116.53;;;108.35;;
31974;SDS011;18500;43.618;1.474;2023-05-07T05:05:06;109.03;;;101.72;;
31974;SDS011;18500;43.618;1.474;2023-05-07T05:07:32;143.07;;;133.65;;
31974;SDS011;18500;43.618;1.474;2023-05-07T05:09:58;166.43;;;155.55;;
31974;SDS011;18500;43.618;1.474;2023-05-07T05:12:23;161.00;;;150.38;;
31974;SDS011;18500;43.618;1.474;2023-05-07T05:14:49;161.73;;;151.25;;
31974;SDS011;18500;43.618;1.474;2023-05-07T05:17:15;213.02;;;199.82;;
31974;SDS011;18500;43.618;1.474;2023-05-07T05:19:41;149.27;;;138.55;;
31974;SDS011;18500;43.618;1.474;2023-05-07T05:22:06;141.25;;;131.93;;
31974;SDS011;18500;43.618;1.474;2023-05-07T05:24:32;156.18;;;145.63;;
31974;SDS011;18500;43.618;1.474;2023-05-07T05:26:58;158.05;;;147.77;;
31974;SDS011;18500;43.618;1.474;2023-05-07T05:29:26;153.00;;;142.57;;
31974;SDS011;18500;43.618;1.474;2023-05-07T05:31:51;170.52;;;158.82;;
31974;SDS011;18500;43.618;1.474;2023-05-07T05:34:17;165.05;;;154.23;;
31974;SDS011;18500;43.618;1.474;2023-05-07T05:36:44;155.32;;;144.82;;
31974;SDS011;18500;43.618;1.474;2023-05-07T05:39:10;172.82;;;161.40;;
31974;SDS011;18500;43.618;1.474;2023-05-07T05:41:36;146.75;;;136.48;;
31974;SDS011;18500;43.618;1.474;2023-05-07T05:44:01;122.28;;;114.43;;
31974;SDS011;18500;43.618;1.474;2023-05-07T05:46:27;199.55;;;187.77;;
31974;SDS011;18500;43.618;1.474;2023-05-07T05:48:53;150.52;;;140.82;;
31974;SDS011;18500;43.618;1.474;2023-05-07T05:51:18;157.32;;;147.13;;
31974;SDS011;18500;43.618;1.474;2023-05-07T05:53:45;143.05;;;133.32;;
31974;SDS011;18500;43.618;1.474;2023-05-07T05:56:11;172.10;;;161.90;;
31974;SDS011;18500;43.618;1.474;2023-05-07T05:58:36;188.38;;;176.55;;
31974;SDS011;18500;43.618;1.474;2023-05-07T06:01:02;143.20;;;133.75;;
31974;SDS011;18500;43.618;1.474;2023-05-07T06:03:28;130.48;;;121.78;;
31974;SDS011;18500;43.618;1.474;2023-05-07T06:05:54;141.65;;;131.73;;
31974;SDS011;18500;43.618;1.474;2023-05-07T06:08:19;193.75;;;182.02;;
31974;SDS011;18500;43.618;1.474;2023-05-07T06:10:45;138.80;;;130.25;;
31974;SDS011;18500;43.618;1.474;2023-05-07T06:13:11;140.10;;;131.00;;
31974;SDS011;18500;43.618;1.474;2023-05-07T06:15:36;202.05;;;189.30;;
31974;SDS011;18500;43.618;1.474;2023-05-07T06:18:02;143.07;;;134.05;;
31974;SDS011;18500;43.618;1.474;2023-05-07T06:20:28;153.65;;;143.55;;
31974;SDS011;18500;43.618;1.474;2023-05-07T06:22:53;124.57;;;116.15;;
31974;SDS011;18500;43.618;1.474;2023-05-07T06:25:19;225.82;;;212.55;;
31974;SDS011;18500;43.618;1.474;2023-05-07T06:27:45;165.02;;;154.20;;
31974;SDS011;18500;43.618;1.474;2023-05-07T06:30:10;162.68;;;152.27;;
31974;SDS011;18500;43.618;1.474;2023-05-07T06:32:36;163.98;;;153.30;;
31974;SDS011;18500;43.618;1.474;2023-05-07T06:35:02;203.90;;;191.93;;
31974;SDS011;18500;43.618;1.474;2023-05-07T06:37:28;122.93;;;114.35;;
31974;SDS011;18500;43.618;1.474;2023-05-07T06:39:53;113.53;;;106.10;;
31974;SDS011;18500;43.618;1.474;2023-05-07T06:42:19;189.55;;;178.00;;
31974;SDS011;18500;43.618;1.474;2023-05-07T06:44:44;273.95;;;257.02;;
31974;SDS011;18500;43.618;1.474;2023-05-07T06:47:10;194.45;;;182.55;;
31974;SDS011;18500;43.618;1.474;2023-05-07T06:49:36;214.95;;;202.27;;
31974;SDS011;18500;43.618;1.474;2023-05-07T06:52:01;126.40;;;117.93;;
31974;SDS011;18500;43.618;1.474;2023-05-07T06:54:27;200.48;;;188.35;;
31974;SDS011;18500;43.618;1.474;2023-05-07T06:56:53;211.95;;;198.65;;
31974;SDS011;18500;43.618;1.474;2023-05-07T06:59:19;176.40;;;165.05;;
31974;SDS011;18500;43.618;1.474;2023-05-07T07:01:45;178.40;;;166.95;;
31974;SDS011;18500;43.618;1.474;2023-05-07T07:04:11;128.98;;;121.07;;
31974;SDS011;18500;43.618;1.474;2023-05-07T07:06:36;207.68;;;195.35;;
31974;SDS011;18500;43.618;1.474;2023-05-07T07:09:02;245.90;;;230.98;;
31974;SDS011;18500;43.618;1.474;2023-05-07T07:11:27;252.48;;;236.73;;
31974;SDS011;18500;43.618;1.474;2023-05-07T07:13:53;181.15;;;169.52;;
31974;SDS011;18500;43.618;1.474;2023-05-07T07:16:20;246.18;;;232.02;;
31974;SDS011;18500;43.618;1.474;2023-05-07T07:18:46;253.65;;;238.38;;
31974;SDS011;18500;43.618;1.474;2023-05-07T07:21:11;247.52;;;232.48;;
31974;SDS011;18500;43.618;1.474;2023-05-07T07:23:37;233.25;;;218.93;;
31974;SDS011;18500;43.618;1.474;2023-05-07T07:26:03;215.45;;;202.23;;
31974;SDS011;18500;43.618;1.474;2023-05-07T07:28:28;305.10;;;286.65;;
31974;SDS011;18500;43.618;1.474;2023-05-07T07:30:54;235.77;;;220.85;;
31974;SDS011;18500;43.618;1.474;2023-05-07T07:33:20;206.35;;;192.88;;
31974;SDS011;18500;43.618;1.474;2023-05-07T07:35:45;176.82;;;164.55;;
31974;SDS011;18500;43.618;1.474;2023-05-07T07:38:11;228.65;;;214.30;;
31974;SDS011;18500;43.618;1.474;2023-05-07T07:40:36;307.50;;;287.70;;
31974;SDS011;18500;43.618;1.474;2023-05-07T07:43:02;251.52;;;235.45;;
31974;SDS011;18500;43.618;1.474;2023-05-07T07:45:28;383.85;;;359.08;;
31974;SDS011;18500;43.618;1.474;2023-05-07T07:47:54;275.20;;;258.45;;
31974;SDS011;18500;43.618;1.474;2023-05-07T07:50:19;278.50;;;262.17;;
31974;SDS011;18500;43.618;1.474;2023-05-07T07:52:45;279.98;;;263.10;;
31974;SDS011;18500;43.618;1.474;2023-05-07T07:55:11;306.98;;;288.63;;
31974;SDS011;18500;43.618;1.474;2023-05-07T07:57:37;254.00;;;239.13;;
31974;SDS011;18500;43.618;1.474;2023-05-07T08:00:03;294.42;;;275.77;;
31974;SDS011;18500;43.618;1.474;2023-05-07T08:02:29;344.92;;;324.08;;
31974;SDS011;18500;43.618;1.474;2023-05-07T08:04:55;382.52;;;359.48;;
31974;SDS011;18500;43.618;1.474;2023-05-07T08:07:21;559.30;;;523.55;;
31974;SDS011;18500;43.618;1.474;2023-05-07T08:09:47;301.85;;;283.45;;
31974;SDS011;18500;43.618;1.474;2023-05-07T08:12:13;272.70;;;257.08;;
31974;SDS011;18500;43.618;1.474;2023-05-07T08:14:39;307.23;;;289.92;;
31974;SDS011;18500;43.618;1.474;2023-05-07T08:17:05;319.73;;;301.13;;
31974;SDS011;18500;43.618;1.474;2023-05-07T08:19:31;312.48;;;293.75;;
31974;SDS011;18500;43.618;1.474;2023-05-07T08:21:57;319.42;;;300.65;;
31974;SDS011;18500;43.618;1.474;2023-05-07T08:24:23;343.83;;;323.23;;
31974;SDS011;18500;43.618;1.474;2023-05-07T08:26:48;419.23;;;394.17;;
31974;SDS011;18500;43.618;1.474;2023-05-07T08:29:15;346.75;;;325.75;;
31974;SDS011;18500;43.618;1.474;2023-05-07T08:31:40;415.95;;;392.15;;
31974;SDS011;18500;43.618;1.474;2023-05-07T08:34:06;402.67;;;379.98;;
31974;SDS011;18500;43.618;1.474;2023-05-07T08:36:32;595.30;;;556.03;;
31974;SDS011;18500;43.618;1.474;2023-05-07T08:38:59;614.13;;;573.83;;
31974;SDS011;18500;43.618;1.474;2023-05-07T08:41:25;600.05;;;559.20;;
31974;SDS011;18500;43.618;1.474;2023-05-07T08:43:50;378.50;;;355.85;;
31974;SDS011;18500;43.618;1.474;2023-05-07T08:46:17;657.30;;;611.20;;
31974;SDS011;18500;43.618;1.474;2023-05-07T08:48:44;631.20;;;588.88;;
31974;SDS011;18500;43.618;1.474;2023-05-07T08:51:13;682.85;;;636.10;;
31974;SDS011;18500;43.618;1.474;2023-05-07T08:53:41;516.38;;;483.55;;
31974;SDS011;18500;43.618;1.474;2023-05-07T08:56:08;685.90;;;637.85;;
31974;SDS011;18500;43.618;1.474;2023-05-07T08:58:34;586.35;;;548.28;;
31974;SDS011;18500;43.618;1.474;2023-05-07T09:01:07;712.03;;;661.42;;
31974;SDS011;18500;43.618;1.474;2023-05-07T09:03:34;667.35;;;621.83;;
31974;SDS011;18500;43.618;1.474;2023-05-07T09:06:01;750.95;;;697.55;;
31974;SDS011;18500;43.618;1.474;2023-05-07T09:08:27;647.45;;;603.75;;
31974;SDS011;18500;43.618;1.474;2023-05-07T09:10:53;673.67;;;628.25;;
31974;SDS011;18500;43.618;1.474;2023-05-07T09:13:18;580.85;;;543.40;;
31974;SDS011;18500;43.618;1.474;2023-05-07T09:15:44;796.22;;;738.13;;
31974;SDS011;18500;43.618;1.474;2023-05-07T09:18:10;769.38;;;714.40;;
31974;SDS011;18500;43.618;1.474;2023-05-07T09:20:37;631.58;;;589.50;;
31974;SDS011;18500;43.618;1.474;2023-05-07T09:23:03;691.00;;;644.28;;
31974;SDS011;18500;43.618;1.474;2023-05-07T09:25:29;708.92;;;658.65;;
31974;SDS011;18500;43.618;1.474;2023-05-07T09:27:56;796.15;;;737.35;;
31974;SDS011;18500;43.618;1.474;2023-05-07T09:30:22;731.58;;;678.90;;
31974;SDS011;18500;43.618;1.474;2023-05-07T09:32:47;681.35;;;634.08;;
31974;SDS011;18500;43.618;1.474;2023-05-07T09:35:16;571.00;;;534.55;;
31974;SDS011;18500;43.618;1.474;2023-05-07T09:37:42;773.65;;;717.33;;
31974;SDS011;18500;43.618;1.474;2023-05-07T09:40:09;717.15;;;667.08;;
31974;SDS011;18500;43.618;1.474;2023-05-07T09:42:46;663.40;;;617.50;;
31974;SDS011;18500;43.618;1.474;2023-05-07T09:45:13;733.25;;;679.67;;
31974;SDS011;18500;43.618;1.474;2023-05-07T09:47:38;869.92;;;800.47;;
31974;SDS011;18500;43.618;1.474;2023-05-07T09:50:09;698.15;;;649.45;;
31974;SDS011;18500;43.618;1.474;2023-05-07T09:52:38;764.15;;;706.92;;
31974;SDS011;18500;43.618;1.474;2023-05-07T09:55:05;706.78;;;657.58;;
31974;SDS011;18500;43.618;1.474;2023-05-07T09:57:32;739.15;;;686.55;;
31974;SDS011;18500;43.618;1.474;2023-05-07T09:59:59;758.40;;;704.42;;
31974;SDS011;18500;43.618;1.474;2023-05-07T10:02:29;736.15;;;682.53;;
31974;SDS011;18500;43.618;1.474;2023-05-07T10:04:55;762.38;;;706.22;;
31974;SDS011;18500;43.618;1.474;2023-05-07T10:07:23;759.42;;;702.83;;
31974;SDS011;18500;43.618;1.474;2023-05-07T10:09:50;803.28;;;742.72;;
31974;SDS011;18500;43.618;1.474;2023-05-07T10:12:16;768.47;;;710.55;;
31974;SDS011;18500;43.618;1.474;2023-05-07T10:14:43;635.35;;;592.95;;
31974;SDS011;18500;43.618;1.474;2023-05-07T10:17:12;504.88;;;472.95;;
31974;SDS011;18500;43.618;1.474;2023-05-07T10:19:41;653.72;;;609.55;;
31974;SDS011;18500;43.618;1.474;2023-05-07T10:22:09;558.72;;;521.78;;
31974;SDS011;18500;43.618;1.474;2023-05-07T10:24:36;432.55;;;405.73;;
31974;SDS011;18500;43.618;1.474;2023-05-07T10:27:04;640.42;;;597.45;;
31974;SDS011;18500;43.618;1.474;2023-05-07T10:32:41;556.88;;;522.55;;
31974;SDS011;18500;43.618;1.474;2023-05-07T10:35:22;597.03;;;557.85;;
31974;SDS011;18500;43.618;1.474;2023-05-07T10:37:51;697.72;;;648.22;;
31974;SDS011;18500;43.618;1.474;2023-05-07T10:40:17;656.53;;;611.10;;
31974;SDS011;18500;43.618;1.474;2023-05-07T10:42:54;645.05;;;601.17;;
31974;SDS011;18500;43.618;1.474;2023-05-07T10:45:25;677.15;;;630.55;;
31974;SDS011;18500;43.618;1.474;2023-05-07T10:48:11;830.28;;;761.35;;
31974;SDS011;18500;43.618;1.474;2023-05-07T10:50:41;857.50;;;788.08;;
31974;SDS011;18500;43.618;1.474;2023-05-07T10:55:43;827.42;;;763.15;;
31974;SDS011;18500;43.618;1.474;2023-05-07T10:58:28;769.20;;;712.03;;
31974;SDS011;18500;43.618;1.474;2023-05-07T11:00:58;821.92;;;758.45;;
31974;SDS011;18500;43.618;1.474;2023-05-07T11:03:26;790.30;;;728.43;;
31974;SDS011;18500;43.618;1.474;2023-05-07T11:11:19;710.38;;;657.80;;
31974;SDS011;18500;43.618;1.474;2023-05-07T11:13:49;689.05;;;640.70;;
31974;SDS011;18500;43.618;1.474;2023-05-07T11:16:22;716.03;;;664.72;;
31974;SDS011;18500;43.618;1.474;2023-05-07T11:18:53;530.58;;;495.17;;
31974;SDS011;18500;43.618;1.474;2023-05-07T11:21:35;726.17;;;674.70;;
31974;SDS011;18500;43.618;1.474;2023-05-07T11:24:06;658.70;;;614.88;;
31974;SDS011;18500;43.618;1.474;2023-05-07T11:26:46;704.58;;;655.55;;
31974;SDS011;18500;43.618;1.474;2023-05-07T11:29:22;845.35;;;775.33;;
31974;SDS011;18500;43.618;1.474;2023-05-07T11:31:48;772.00;;;716.00;;
31974;SDS011;18500;43.618;1.474;2023-05-07T11:34:15;718.65;;;669.33;;
31974;SDS011;18500;43.618;1.474;2023-05-07T11:36:46;617.10;;;574.37;;
31974;SDS011;18500;43.618;1.474;2023-05-07T11:39:23;821.55;;;760.78;;
31974;SDS011;18500;43.618;1.474;2023-05-07T11:41:50;620.95;;;577.85;;
31974;SDS011;18500;43.618;1.474;2023-05-07T11:44:15;598.25;;;558.03;;
31974;SDS011;18500;43.618;1.474;2023-05-07T11:46:42;557.42;;;520.45;;
31974;SDS011;18500;43.618;1.474;2023-05-07T11:49:09;703.83;;;654.05;;
31974;SDS011;18500;43.618;1.474;2023-05-07T11:51:35;790.97;;;733.00;;
31974;SDS011;18500;43.618;1.474;2023-05-07T11:54:03;568.17;;;530.88;;
31974;SDS011;18500;43.618;1.474;2023-05-07T11:56:33;712.05;;;659.00;;
31974;SDS011;18500;43.618;1.474;2023-05-07T11:59:00;855.90;;;788.97;;
31974;SDS011;18500;43.618;1.474;2023-05-07T12:01:26;703.67;;;650.80;;
31974;SDS011;18500;43.618;1.474;2023-05-07T12:03:52;755.42;;;696.28;;
31974;SDS011;18500;43.618;1.474;2023-05-07T12:06:17;845.50;;;773.17;;
31974;SDS011;18500;43.618;1.474;2023-05-07T12:08:43;710.97;;;654.53;;
31974;SDS011;18500;43.618;1.474;2023-05-07T12:11:13;787.95;;;720.15;;
31974;SDS011;18500;43.618;1.474;2023-05-07T12:13:47;847.28;;;773.13;;
31974;SDS011;18500;43.618;1.474;2023-05-07T12:16:13;549.08;;;510.95;;
31974;SDS011;18500;43.618;1.474;2023-05-07T12:18:39;843.53;;;778.30;;
31974;SDS011;18500;43.618;1.474;2023-05-07T12:21:05;494.27;;;461.95;;
31974;SDS011;18500;43.618;1.474;2023-05-07T12:23:33;604.33;;;562.05;;
31974;SDS011;18500;43.618;1.474;2023-05-07T12:26:00;719.90;;;669.13;;
31974;SDS011;18500;43.618;1.474;2023-05-07T12:28:26;824.15;;;761.88;;
31974;SDS011;18500;43.618;1.474;2023-05-07T12:30:52;797.33;;;738.40;;
31974;SDS011;18500;43.618;1.474;2023-05-07T12:33:18;810.92;;;750.63;;
31974;SDS011;18500;43.618;1.474;2023-05-07T12:35:48;753.58;;;696.13;;
31974;SDS011;18500;43.618;1.474;2023-05-07T12:38:17;891.03;;;820.80;;
31974;SDS011;18500;43.618;1.474;2023-05-07T12:40:43;875.78;;;806.70;;
31974;SDS011;18500;43.618;1.474;2023-05-07T12:43:25;871.25;;;801.35;;
31974;SDS011;18500;43.618;1.474;2023-05-07T12:45:56;772.40;;;711.47;;
31974;SDS011;18500;43.618;1.474;2023-05-07T12:48:25;867.63;;;796.35;;
31974;SDS011;18500;43.618;1.474;2023-05-07T12:50:55;769.67;;;710.55;;
31974;SDS011;18500;43.618;1.474;2023-05-07T12:53:22;802.40;;;741.67;;
31974;SDS011;18500;43.618;1.474;2023-05-07T12:55:50;856.72;;;790.33;;
31974;SDS011;18500;43.618;1.474;2023-05-07T12:58:20;623.55;;;579.30;;
31974;SDS011;18500;43.618;1.474;2023-05-07T13:00:50;720.45;;;668.25;;
31974;SDS011;18500;43.618;1.474;2023-05-07T13:03:33;720.33;;;669.33;;
31974;SDS011;18500;43.618;1.474;2023-05-07T13:06:01;1026.55;;;935.65;;
31974;SDS011;18500;43.618;1.474;2023-05-07T13:08:29;1003.97;;;917.70;;
31974;SDS011;18500;43.618;1.474;2023-05-07T13:10:57;1051.80;;;958.13;;
31974;SDS011;18500;43.618;1.474;2023-05-07T13:13:23;947.35;;;873.78;;
31974;SDS011;18500;43.618;1.474;2023-05-07T13:15:50;785.03;;;728.25;;
31974;SDS011;18500;43.618;1.474;2023-05-07T13:18:15;953.45;;;875.13;;
31974;SDS011;18500;43.618;1.474;2023-05-07T13:20:41;981.47;;;900.80;;
31974;SDS011;18500;43.618;1.474;2023-05-07T13:23:07;1059.95;;;964.88;;
31974;SDS011;18500;43.618;1.474;2023-05-07T13:25:33;873.92;;;804.10;;
31974;SDS011;18500;43.618;1.474;2023-05-07T13:27:58;891.20;;;820.17;;
31974;SDS011;18500;43.618;1.474;2023-05-07T13:30:24;915.47;;;838.67;;
31974;SDS011;18500;43.618;1.474;2023-05-07T13:32:50;935.05;;;859.30;;
31974;SDS011;18500;43.618;1.474;2023-05-07T13:35:17;1018.15;;;930.38;;
31974;SDS011;18500;43.618;1.474;2023-05-07T13:37:43;1044.57;;;951.45;;
31974;SDS011;18500;43.618;1.474;2023-05-07T13:40:08;865.05;;;791.30;;
31974;SDS011;18500;43.618;1.474;2023-05-07T13:42:34;718.58;;;660.58;;
31974;SDS011;18500;43.618;1.474;2023-05-07T13:45:00;712.83;;;656.55;;
31974;SDS011;18500;43.618;1.474;2023-05-07T13:47:28;815.00;;;749.45;;
31974;SDS011;18500;43.618;1.474;2023-05-07T13:49:53;789.40;;;730.38;;
31974;SDS011;18500;43.618;1.474;2023-05-07T13:52:19;760.15;;;705.00;;
31974;SDS011;18500;43.618;1.474;2023-05-07T13:54:45;721.60;;;667.42;;
31974;SDS011;18500;43.618;1.474;2023-05-07T13:57:10;754.63;;;696.47;;
31974;SDS011;18500;43.618;1.474;2023-05-07T13:59:36;805.78;;;741.65;;
31974;SDS011;18500;43.618;1.474;2023-05-07T14:02:02;726.28;;;670.70;;
31974;SDS011;18500;43.618;1.474;2023-05-07T14:04:27;720.83;;;666.08;;
31974;SDS011;18500;43.618;1.474;2023-05-07T14:06:53;796.17;;;738.97;;